Time;durP1;ratioP1;P1;durP2;ratioP2;P2;SDS_P1;SDS_P2;PMS_P1;PMS_P2;Temp;Humidity;BMP_temperature;BMP_pressure;BME280_temperature;BME280_humidity;BME280_pressure;Samples;Min_cycle;Max_cycle;Signal;HPM_P1;HPM_P2
2022/02/20 00:00:40;;;;;;;8;15.7;;;;;;;1.5;56.4;98690;;;;
2022/02/20 00:11:40;;;;;;;8;15.7;;;;;;;1.5;56;98690;;;;
2022/02/20 00:21:40;;;;;;;7.2;11.9;;;;;;;1.6;56.2;98690;;;;
2022/02/20 00:32:40;;;;;;;7.2;11.9;;;;;;;1.6;55.9;98680;;;;
2022/02/20 00:42:40;;;;;;;7.8;14.9;;;;;;;1.7;55.6;98660;;;;
2022/02/20 00:52:40;;;;;;;7.8;14.9;;;;;;;1.6;55.8;98660;;;;
2022/02/20 01:03:40;;;;;;;7.8;14.9;;;;;;;1.6;56.1;98650;;;;
2022/02/20 01:13:40;;;;;;;7;12.2;;;;;;;1.8;55.2;98640;;;;
2022/02/20 01:24:40;;;;;;;7;12.2;;;;;;;1.8;55;98630;;;;
2022/02/20 01:35:41;;;;;;;7;12.2;;;;;;;1.8;54.7;98610;;;;
2022/02/20 01:45:40;;;;;;;5.5;11;;;;;;;1.8;54.7;98590;;;;
2022/02/20 01:55:40;;;;;;;5.5;11;;;;;;;1.7;55.3;98570;;;;
2022/02/20 02:05:40;;;;;;;5.5;11;;;;;;;1.7;55.3;98550;;;;
2022/02/20 02:15:40;;;;;;;5.1;10.2;;;;;;;1.7;55.2;98540;;;;
2022/02/20 02:25:40;;;;;;;5.1;10.2;;;;;;;1.7;54.9;98540;;;;
2022/02/20 02:36:40;;;;;;;5.1;10.2;;;;;;;1.8;54.8;98530;;;;
2022/02/20 02:46:40;;;;;;;4.6;10.1;;;;;;;1.8;54.9;98520;;;;
2022/02/20 02:56:40;;;;;;;4.6;10.1;;;;;;;1.8;54.9;98500;;;;
2022/02/20 03:07:42;;;;;;;4.6;10.1;;;;;;;1.9;54.3;98480;;;;
2022/02/20 03:17:41;;;;;;;3.8;10.6;;;;;;;2.1;54;98450;;;;
2022/02/20 03:28:40;;;;;;;3.8;10.6;;;;;;;2.1;53.6;98440;;;;
2022/02/20 03:38:41;;;;;;;3.8;10.6;;;;;;;2;53.9;98430;;;;
2022/02/20 03:49:40;;;;;;;2.9;6.4;;;;;;;2;53.8;98420;;;;
2022/02/20 04:00:40;;;;;;;2.9;6.4;;;;;;;2;54.2;98410;;;;
2022/02/20 04:11:40;;;;;;;2.8;5.6;;;;;;;2.1;53.8;98390;;;;
2022/02/20 04:21:40;;;;;;;2.8;5.6;;;;;;;2.2;53.2;98360;;;;
2022/02/20 04:31:40;;;;;;;2.8;5.6;;;;;;;2.5;52.4;98360;;;;
2022/02/20 04:41:40;;;;;;;3.4;6.9;;;;;;;2.7;51.7;98340;;;;
2022/02/20 04:51:40;;;;;;;3.4;6.9;;;;;;;2.8;51.7;98330;;;;
2022/02/20 05:01:40;;;;;;;3.4;6.9;;;;;;;3;50.9;98320;;;;
2022/02/20 05:11:40;;;;;;;2.9;8.4;;;;;;;3;51.1;98300;;;;
2022/02/20 05:21:40;;;;;;;2.9;8.4;;;;;;;2.9;50.8;98280;;;;
2022/02/20 05:32:40;;;;;;;2.9;8.4;;;;;;;3;50.9;98240;;;;
2022/02/20 05:43:40;;;;;;;2.9;7.3;;;;;;;3.3;49.8;98210;;;;
2022/02/20 05:54:40;;;;;;;2.9;7.3;;;;;;;3.5;49;98200;;;;
2022/02/20 06:04:40;;;;;;;2.9;7.3;;;;;;;3.7;48.8;98180;;;;
2022/02/20 06:15:40;;;;;;;2.2;5.1;;;;;;;3.8;48.6;98170;;;;
2022/02/20 06:25:41;;;;;;;2.2;5.1;;;;;;;4.2;48.4;98160;;;;
2022/02/20 06:36:41;;;;;;;2.2;5.1;;;;;;;4.5;48.3;98160;;;;
2022/02/20 06:47:40;;;;;;;3.1;8;;;;;;;4.6;48.9;98180;;;;
2022/02/20 06:57:40;;;;;;;3.1;8;;;;;;;4.9;49.9;98190;;;;
2022/02/20 07:08:40;;;;;;;3.1;8;;;;;;;5.3;53;98210;;;;
2022/02/20 07:19:40;;;;;;;2.8;8.3;;;;;;;5.4;54.5;98220;;;;
2022/02/20 07:29:40;;;;;;;2.8;8.3;;;;;;;5.3;56.9;98230;;;;
2022/02/20 07:39:40;;;;;;;2.8;8.3;;;;;;;5.5;59.2;98220;;;;
2022/02/20 07:49:40;;;;;;;3;8.8;;;;;;;5.4;61;98220;;;;
2022/02/20 08:00:40;;;;;;;3;8.8;;;;;;;5;64;98230;;;;
2022/02/20 08:11:40;;;;;;;2.1;4.6;;;;;;;5.1;65.6;98230;;;;
2022/02/20 08:21:40;;;;;;;2.1;4.6;;;;;;;4.8;68.7;98230;;;;
2022/02/20 08:32:40;;;;;;;2.1;4.6;;;;;;;5.1;69.4;98230;;;;
2022/02/20 08:42:40;;;;;;;1.4;3.3;;;;;;;5;69.2;98240;;;;
2022/02/20 08:52:40;;;;;;;1.4;3.3;;;;;;;4.9;71;98240;;;;
2022/02/20 09:03:41;;;;;;;1.4;3.3;;;;;;;4.8;72.8;98240;;;;
2022/02/20 09:13:40;;;;;;;1.6;4.3;;;;;;;4.6;72.8;98250;;;;
2022/02/20 09:24:40;;;;;;;1.6;4.3;;;;;;;4.6;75;98260;;;;
2022/02/20 09:35:40;;;;;;;1.6;4.3;;;;;;;4.3;76.2;98260;;;;
2022/02/20 09:46:41;;;;;;;1.9;3.6;;;;;;;4;77.3;98260;;;;
2022/02/20 09:57:41;;;;;;;1.9;3.6;;;;;;;4;78.1;98260;;;;
2022/02/20 10:08:41;;;;;;;1.9;3.6;;;;;;;4.4;79;98260;;;;
2022/02/20 10:18:40;;;;;;;3.2;5.9;;;;;;;4.4;78.4;98260;;;;
2022/02/20 10:29:41;;;;;;;3.2;5.9;;;;;;;4.6;77.6;98260;;;;
2022/02/20 10:40:41;;;;;;;4.2;8.6;;;;;;;4.4;77.2;98270;;;;
2022/02/20 10:50:40;;;;;;;4.2;8.6;;;;;;;4.4;77.4;98260;;;;
2022/02/20 11:01:40;;;;;;;4.2;8.6;;;;;;;4.6;76.8;98250;;;;
2022/02/20 11:11:40;;;;;;;2.6;4.4;;;;;;;4.5;76;98240;;;;
2022/02/20 11:21:41;;;;;;;2.6;4.4;;;;;;;4.7;74.7;98240;;;;
2022/02/20 11:32:41;;;;;;;2.6;4.4;;;;;;;4.8;74.3;98240;;;;
2022/02/20 11:42:41;;;;;;;3.4;6.1;;;;;;;5;73.5;98240;;;;
2022/02/20 11:53:40;;;;;;;3.4;6.1;;;;;;;5.2;72.9;98240;;;;
2022/02/20 12:03:40;;;;;;;3.4;6.1;;;;;;;5.9;69.7;98240;;;;
2022/02/20 12:13:40;;;;;;;5.1;8;;;;;;;6.7;66.5;98240;;;;
2022/02/20 12:23:40;;;;;;;5.1;8;;;;;;;7.3;63.6;98220;;;;
2022/02/20 12:34:40;;;;;;;5.1;8;;;;;;;8.2;61.1;98210;;;;
2022/02/20 12:45:41;;;;;;;3.1;6.2;;;;;;;8.3;59.5;98220;;;;
2022/02/20 12:55:41;;;;;;;3.1;6.2;;;;;;;8.2;58.7;98210;;;;
2022/02/20 13:05:40;;;;;;;3.1;6.2;;;;;;;8.2;59;98210;;;;
2022/02/20 13:15:40;;;;;;;2.9;5.3;;;;;;;8;58.1;98220;;;;
2022/02/20 13:26:40;;;;;;;2.9;5.3;;;;;;;8.1;58;98220;;;;
2022/02/20 13:37:41;;;;;;;2.9;5.3;;;;;;;8.3;57.2;98210;;;;
2022/02/20 13:47:40;;;;;;;2.9;5.4;;;;;;;9.2;55.5;98200;;;;
2022/02/20 13:58:41;;;;;;;2.9;5.4;;;;;;;9;54.2;98180;;;;
2022/02/20 14:09:40;;;;;;;3;5.9;;;;;;;9.3;53.1;98170;;;;
2022/02/20 14:20:41;;;;;;;3;5.9;;;;;;;8.8;53.5;98170;;;;
2022/02/20 14:30:42;;;;;;;3;5.9;;;;;;;8.5;54.4;98180;;;;
2022/02/20 14:40:40;;;;;;;3.4;8;;;;;;;8.2;53.9;98170;;;;
2022/02/20 14:51:40;;;;;;;3.4;8;;;;;;;8.2;53.6;98170;;;;
2022/02/20 15:01:40;;;;;;;3.4;8;;;;;;;8.3;53.3;98160;;;;
2022/02/20 15:11:42;;;;;;;3;8.3;;;;;;;8.5;53;98160;;;;
2022/02/20 15:21:41;;;;;;;3;8.3;;;;;;;8.5;52.4;98160;;;;
2022/02/20 15:32:42;;;;;;;3;8.3;;;;;;;8.2;53;98150;;;;
2022/02/20 15:42:40;;;;;;;3.1;6.1;;;;;;;7.9;54;98150;;;;
2022/02/20 15:52:41;;;;;;;3.1;6.1;;;;;;;7.7;53.3;98150;;;;
2022/02/20 16:02:40;;;;;;;3.1;6.1;;;;;;;7.1;57.4;98140;;;;
2022/02/20 16:12:40;;;;;;;4.5;8.3;;;;;;;6.7;60.5;98130;;;;
2022/02/20 16:22:41;;;;;;;4.5;8.3;;;;;;;6.3;62;98120;;;;
2022/02/20 16:33:43;;;;;;;4.5;8.3;;;;;;;6.1;63.4;98110;;;;
2022/02/20 16:43:41;;;;;;;7.3;11.9;;;;;;;6;63.8;98110;;;;
2022/02/20 16:53:40;;;;;;;7.3;11.9;;;;;;;6;63.4;98100;;;;
2022/02/20 17:03:40;;;;;;;7.3;11.9;;;;;;;6;63.2;98090;;;;
2022/02/20 17:14:40;;;;;;;5.6;8.8;;;;;;;6.1;62.7;98100;;;;
2022/02/20 17:24:42;;;;;;;5.6;8.8;;;;;;;6.1;62.7;98100;;;;
2022/02/20 17:34:41;;;;;;;5.6;8.8;;;;;;;6.2;63.1;98110;;;;
2022/02/20 17:45:41;;;;;;;6.8;12.5;;;;;;;6.2;64.3;98100;;;;
2022/02/20 17:55:41;;;;;;;6.8;12.5;;;;;;;6.2;65.1;98090;;;;
2022/02/20 18:06:41;;;;;;;6.8;12.5;;;;;;;6.2;65.9;98080;;;;
2022/02/20 18:16:41;;;;;;;6.5;10.7;;;;;;;6.1;66.4;98070;;;;
2022/02/20 18:27:40;;;;;;;6.5;10.7;;;;;;;6.1;66.5;98060;;;;
2022/02/20 18:37:41;;;;;;;6.5;10.7;;;;;;;6;66.8;98050;;;;
2022/02/20 18:48:40;;;;;;;4.5;7.7;;;;;;;6;66.8;98040;;;;
2022/02/20 18:59:41;;;;;;;4.5;7.7;;;;;;;5.8;67.6;98030;;;;
2022/02/20 19:09:41;;;;;;;4.6;8.7;;;;;;;5.6;67.8;98030;;;;
2022/02/20 19:20:41;;;;;;;4.6;8.7;;;;;;;5.6;68.1;98020;;;;
2022/02/20 19:31:41;;;;;;;4.6;8.7;;;;;;;5.6;68.1;98020;;;;
2022/02/20 19:42:41;;;;;;;4;6.4;;;;;;;5.9;67.9;98010;;;;
2022/02/20 19:52:41;;;;;;;4;6.4;;;;;;;6;67.7;98000;;;;
2022/02/20 20:02:41;;;;;;;4;6.4;;;;;;;6;68;98000;;;;
2022/02/20 20:13:41;;;;;;;3.5;7.4;;;;;;;6.1;68.6;97990;;;;
2022/02/20 20:23:41;;;;;;;3.5;7.4;;;;;;;6.3;69.3;97970;;;;
2022/02/20 20:33:41;;;;;;;3.5;7.4;;;;;;;6.4;69.5;97960;;;;
2022/02/20 20:43:41;;;;;;;2.7;5.1;;;;;;;6.5;70;97940;;;;
2022/02/20 20:54:41;;;;;;;2.7;5.1;;;;;;;6.6;69.8;97920;;;;
2022/02/20 21:05:41;;;;;;;2.7;5.1;;;;;;;6.7;69.7;97910;;;;
2022/02/20 21:15:41;;;;;;;2.8;5.3;;;;;;;6.9;69.1;97910;;;;
2022/02/20 21:25:41;;;;;;;2.8;5.3;;;;;;;7;68.7;97890;;;;
2022/02/20 21:35:41;;;;;;;2.8;5.3;;;;;;;7;68.5;97850;;;;
2022/02/20 21:46:41;;;;;;;1.8;4.4;;;;;;;7.1;68.6;97850;;;;
2022/02/20 21:56:41;;;;;;;1.8;4.4;;;;;;;7.1;68.6;97830;;;;
2022/02/20 22:07:41;;;;;;;1.8;4.4;;;;;;;7.2;68.4;97820;;;;
2022/02/20 22:17:41;;;;;;;2.1;4;;;;;;;7.3;68;97810;;;;
2022/02/20 22:27:41;;;;;;;2.1;4;;;;;;;7.4;67.5;97780;;;;
2022/02/20 22:38:41;;;;;;;2;4.4;;;;;;;7.4;67.2;97740;;;;
2022/02/20 22:49:41;;;;;;;2;4.4;;;;;;;7.4;67;97710;;;;
2022/02/20 22:59:41;;;;;;;2;4.4;;;;;;;7.3;67;97710;;;;
2022/02/20 23:09:41;;;;;;;1.6;3.6;;;;;;;7.6;66.3;97670;;;;
2022/02/20 23:19:41;;;;;;;1.6;3.6;;;;;;;7.8;65.4;97660;;;;
2022/02/20 23:29:41;;;;;;;1.6;3.6;;;;;;;7.8;64.9;97660;;;;
2022/02/20 23:40:41;;;;;;;1.3;2.9;;;;;;;7.8;64.6;97620;;;;
2022/02/20 23:50:41;;;;;;;1.3;2.9;;;;;;;7.9;64.2;97600;;;;
